Time;durP1;ratioP1;P1;durP2;ratioP2;P2;SDS_P1;SDS_P2;PMS_P1;PMS_P2;Temp;Humidity;BMP_temperature;BMP_pressure;BME280_temperature;BME280_humidity;BME280_pressure;Samples;Min_cycle;Max_cycle;Signal;HPM_P1;HPM_P2
2022/11/01 00:02:06;;;;;;;16.70;4.55;;;;;;;;;;1700734;84;20908;-90
2022/11/01 00:04:32;;;;;;;15.65;5.00;;;;;;;;;;1700966;84;21621;-91
2022/11/01 00:06:57;;;;;;;12.75;3.87;;;;;;;;;;1701020;83;21046;-90
2022/11/01 00:09:23;;;;;;;11.63;4.12;;;;;;;;;;1701049;83;21634;-89
2022/11/01 00:11:49;;;;;;;15.48;4.53;;;;;;;;;;1700951;84;21868;-89
2022/11/01 00:14:16;;;;;;;11.78;3.75;;;;;;;;;;1700714;83;20864;-89
2022/11/01 00:16:42;;;;;;;15.00;4.42;;;;;;;;;;1701063;83;21058;-88
2022/11/01 00:19:08;;;;;;;14.45;4.08;;;;;;;;;;1701125;84;20991;-90
2022/11/01 00:21:34;;;;;;;15.03;4.78;;;;;;;;;;1701158;84;21007;-90
2022/11/01 00:23:59;;;;;;;12.07;4.00;;;;;;;;;;1700917;84;21081;-90
2022/11/01 00:26:25;;;;;;;17.77;4.47;;;;;;;;;;1700992;83;20964;-90
2022/11/01 00:28:51;;;;;;;12.50;4.28;;;;;;;;;;1700736;84;20960;-93
2022/11/01 00:31:18;;;;;;;14.53;4.08;;;;;;;;;;1704677;83;21026;-89
2022/11/01 00:33:44;;;;;;;11.78;3.65;;;;;;;;;;1701004;84;20940;-89
2022/11/01 00:36:10;;;;;;;14.53;4.12;;;;;;;;;;1701000;83;21086;-90
2022/11/01 00:38:36;;;;;;;11.15;3.67;;;;;;;;;;1701132;84;21038;-90
2022/11/01 00:41:02;;;;;;;12.78;4.08;;;;;;;;;;1701379;84;20904;-94
2022/11/01 00:43:31;;;;;;;13.40;4.28;;;;;;;;;;1700518;83;21035;-89
2022/11/01 00:45:57;;;;;;;10.43;4.17;;;;;;;;;;1660310;85;21005;-90
2022/11/01 00:48:22;;;;;;;11.88;3.98;;;;;;;;;;1660248;86;21184;-90
2022/11/01 00:50:48;;;;;;;13.40;3.90;;;;;;;;;;1660187;85;21057;-91
2022/11/01 00:53:14;;;;;;;17.25;4.03;;;;;;;;;;1660262;85;20979;-89
2022/11/01 00:55:40;;;;;;;12.85;3.85;;;;;;;;;;1660392;85;21510;-91
2022/11/01 00:58:06;;;;;;;13.78;3.95;;;;;;;;;;1659924;86;20915;-90
2022/11/01 01:00:32;;;;;;;13.32;3.75;;;;;;;;;;1660290;85;21931;-93
2022/11/01 01:02:57;;;;;;;13.88;3.87;;;;;;;;;;1660341;85;20910;-90
2022/11/01 01:05:23;;;;;;;15.35;4.75;;;;;;;;;;1660573;86;20888;-89
2022/11/01 01:07:49;;;;;;;11.50;3.75;;;;;;;;;;1660345;86;20829;-90
2022/11/01 01:10:15;;;;;;;15.13;4.45;;;;;;;;;;1660139;86;21128;-90
2022/11/01 01:12:40;;;;;;;14.75;4.65;;;;;;;;;;1660099;85;21082;-91
2022/11/01 01:15:07;;;;;;;17.50;5.25;;;;;;;;;;1660292;85;20947;-90
2022/11/01 01:17:33;;;;;;;20.12;5.03;;;;;;;;;;1660269;86;21487;-88
2022/11/01 01:19:59;;;;;;;14.25;5.17;;;;;;;;;;1660558;85;20867;-90
2022/11/01 01:22:24;;;;;;;18.57;5.03;;;;;;;;;;1660324;86;21045;-90
2022/11/01 01:24:50;;;;;;;13.78;4.47;;;;;;;;;;1637411;86;21077;-91
2022/11/01 01:27:16;;;;;;;17.90;4.95;;;;;;;;;;1660190;85;20892;-92
2022/11/01 01:29:43;;;;;;;12.82;4.10;;;;;;;;;;1660463;86;21071;-91
2022/11/01 01:32:13;;;;;;;16.93;5.03;;;;;;;;;;1660249;85;21042;-89
2022/11/01 01:34:39;;;;;;;15.63;5.17;;;;;;;;;;1631300;88;21538;-90
2022/11/01 01:37:06;;;;;;;17.52;4.97;;;;;;;;;;1631192;88;21169;-89
2022/11/01 01:39:32;;;;;;;14.18;5.40;;;;;;;;;;1631091;88;21114;-89
2022/11/01 01:41:58;;;;;;;15.60;4.72;;;;;;;;;;1633794;86;20926;-90
2022/11/01 01:44:51;;;;;;;14.45;5.03;;;;;;;;;;1641585;86;20915;-92
2022/11/01 01:47:24;;;;;;;;;;;;;;;;;;1528884;92;21064;-90
2022/11/01 01:49:53;;;;;;;12.13;4.55;;;;;;;;;;1526816;92;21365;-91
2022/11/01 01:52:19;;;;;;;16.65;4.95;;;;;;;;;;1526277;92;21132;-91
2022/11/01 01:54:45;;;;;;;17.15;5.42;;;;;;;;;;1507570;92;21034;-90
2022/11/01 01:57:11;;;;;;;15.70;4.37;;;;;;;;;;1526572;92;21133;-92
2022/11/01 01:59:38;;;;;;;13.53;4.72;;;;;;;;;;1526532;92;21112;-91
2022/11/01 02:02:04;;;;;;;15.68;5.12;;;;;;;;;;1526753;92;21137;-89
2022/11/01 02:04:35;;;;;;;19.62;4.85;;;;;;;;;;1526615;92;20954;-90
2022/11/01 02:07:02;;;;;;;16.42;4.70;;;;;;;;;;1526744;92;21082;-93
2022/11/01 02:09:29;;;;;;;15.20;4.95;;;;;;;;;;1526688;92;21120;-88
2022/11/01 02:11:55;;;;;;;16.97;4.85;;;;;;;;;;1526332;92;21140;-90
2022/11/01 02:14:22;;;;;;;16.30;4.30;;;;;;;;;;1507654;92;21962;-91
2022/11/01 02:17:09;;;;;;;12.37;4.50;;;;;;;;;;1526637;92;21732;-90
2022/11/01 02:19:56;;;;;;;15.10;4.62;;;;;;;;;;1520692;94;21134;-90
2022/11/01 02:22:26;;;;;;;12.33;3.85;;;;;;;;;;1520713;94;21113;-90
2022/11/01 02:25:02;;;;;;;18.57;4.70;;;;;;;;;;1518418;94;21126;-90
2022/11/01 02:27:52;;;;;;;13.20;4.60;;;;;;;;;;1520701;93;21181;-92
2022/11/01 02:30:19;;;;;;;13.22;4.85;;;;;;;;;;1517888;93;21083;-90
2022/11/01 02:32:51;;;;;;;24.63;4.87;;;;;;;;;;1568377;90;21114;-90
2022/11/01 02:35:48;;;;;;;13.53;4.05;;;;;;;;;;1568635;90;21000;-90
2022/11/01 02:38:41;;;;;;;14.90;4.50;;;;;;;;;;1568788;90;21603;-88
2022/11/01 02:41:22;;;;;;;14.40;3.90;;;;;;;;;;1565790;91;21598;-90
2022/11/01 02:44:01;;;;;;;15.45;4.40;;;;;;;;;;1570985;90;21095;-89
2022/11/01 02:49:29;;;;;;;13.30;4.67;;;;;;;;;;1525140;94;21146;-91
2022/11/01 02:51:56;;;;;;;18.60;5.17;;;;;;;;;;1525801;94;21576;-90
2022/11/01 02:54:32;;;;;;;16.67;5.00;;;;;;;;;;1525477;93;21218;-91
2022/11/01 02:57:11;;;;;;;13.62;4.70;;;;;;;;;;1525231;94;22603;-91
2022/11/01 02:59:44;;;;;;;18.73;4.78;;;;;;;;;;1525004;93;21023;-90
2022/11/01 03:02:13;;;;;;;21.68;5.05;;;;;;;;;;1525154;94;21100;-90
2022/11/01 03:04:39;;;;;;;19.23;5.33;;;;;;;;;;1525446;94;21103;-90
2022/11/01 03:07:07;;;;;;;17.77;5.22;;;;;;;;;;1525515;94;21926;-90
2022/11/01 03:09:33;;;;;;;17.48;4.67;;;;;;;;;;1525644;94;21190;-88
2022/11/01 03:12:04;;;;;;;15.65;4.53;;;;;;;;;;1525315;94;21052;-91
2022/11/01 03:14:45;;;;;;;14.95;4.53;;;;;;;;;;1526146;93;21119;-89
2022/11/01 03:17:15;;;;;;;18.73;5.25;;;;;;;;;;1623872;86;21105;-91
2022/11/01 03:19:50;;;;;;;18.87;5.22;;;;;;;;;;1613748;88;21170;-91
2022/11/01 03:22:39;;;;;;;15.95;4.25;;;;;;;;;;1650084;86;21023;-88
2022/11/01 03:28:24;;;;;;;12.33;4.33;;;;;;;;;;1587231;90;21697;-88
2022/11/01 03:30:56;;;;;;;17.48;4.42;;;;;;;;;;1584502;90;21109;-89
2022/11/01 03:33:23;;;;;;;12.65;4.10;;;;;;;;;;1587728;90;22171;-89
2022/11/01 03:35:52;;;;;;;12.93;4.35;;;;;;;;;;1592600;86;21467;-88
2022/11/01 03:38:20;;;;;;;18.50;5.15;;;;;;;;;;1647892;87;21070;-88
2022/11/01 03:40:57;;;;;;;15.80;4.62;;;;;;;;;;1647826;87;21113;-88
2022/11/01 03:43:24;;;;;;;14.25;4.22;;;;;;;;;;1633710;87;21125;-86
2022/11/01 03:45:50;;;;;;;12.55;4.15;;;;;;;;;;1625605;88;21039;-88
2022/11/01 03:48:16;;;;;;;13.18;4.25;;;;;;;;;;1625071;88;20945;-88
2022/11/01 03:50:49;;;;;;;12.47;4.20;;;;;;;;;;1625177;88;21617;-87
2022/11/01 03:53:15;;;;;;;9.38;3.62;;;;;;;;;;1625343;88;21109;-88
2022/11/01 03:55:41;;;;;;;11.50;4.42;;;;;;;;;;1625608;88;21041;-89
2022/11/01 03:58:07;;;;;;;11.50;4.00;;;;;;;;;;1625211;88;21082;-88
2022/11/01 04:00:37;;;;;;;11.73;3.95;;;;;;;;;;1624760;88;21002;-87
2022/11/01 04:03:02;;;;;;;12.85;3.65;;;;;;;;;;1625234;88;21242;-91
2022/11/01 04:05:30;;;;;;;11.60;3.70;;;;;;;;;;1625231;88;20868;-86
2022/11/01 04:07:55;;;;;;;12.43;4.12;;;;;;;;;;1625665;88;21077;-89
2022/11/01 04:10:23;;;;;;;13.95;3.75;;;;;;;;;;1625487;88;21545;-88
2022/11/01 04:12:49;;;;;;;18.05;3.75;;;;;;;;;;1625315;88;21129;-88
2022/11/01 04:20:46;;;;;;;13.95;3.80;;;;;;;;;;1647643;86;21078;-89
2022/11/01 04:23:12;;;;;;;13.13;3.80;;;;;;;;;;1657942;86;21099;-92
2022/11/01 04:25:38;;;;;;;16.85;5.15;;;;;;;;;;1658172;86;20954;-90
2022/11/01 04:28:04;;;;;;;14.05;4.95;;;;;;;;;;1658089;86;20918;-90
2022/11/01 04:30:29;;;;;;;11.83;4.60;;;;;;;;;;1657761;86;20962;-90
2022/11/01 04:32:55;;;;;;;19.87;4.78;;;;;;;;;;1658078;86;20867;-89
2022/11/01 04:35:21;;;;;;;19.90;4.80;;;;;;;;;;1658064;86;21886;-89
2022/11/01 04:37:48;;;;;;;15.28;4.42;;;;;;;;;;1658233;86;21096;-90
2022/11/01 04:40:14;;;;;;;15.20;4.42;;;;;;;;;;1701856;84;21155;-87
2022/11/01 04:42:40;;;;;;;9.73;4.25;;;;;;;;;;1705624;84;20896;-89
2022/11/01 04:45:07;;;;;;;13.05;3.77;;;;;;;;;;1702299;83;20936;-90
2022/11/01 04:47:33;;;;;;;15.32;4.60;;;;;;;;;;1701032;83;21075;-87
2022/11/01 04:49:59;;;;;;;10.85;4.00;;;;;;;;;;1700918;84;21535;-90
2022/11/01 04:52:25;;;;;;;19.20;4.65;;;;;;;;;;1704777;84;20919;-89
2022/11/01 04:54:51;;;;;;;16.12;4.40;;;;;;;;;;1700990;84;20884;-90
2022/11/01 04:57:23;;;;;;;14.28;4.40;;;;;;;;;;1701095;83;20979;-90
2022/11/01 04:59:52;;;;;;;15.85;5.08;;;;;;;;;;1704270;83;21974;-90
2022/11/01 05:02:18;;;;;;;18.10;4.72;;;;;;;;;;1700856;84;21547;-90
2022/11/01 05:04:44;;;;;;;13.40;4.40;;;;;;;;;;1701135;83;21051;-89
2022/11/01 05:07:10;;;;;;;19.80;4.75;;;;;;;;;;1701042;84;21551;-90
2022/11/01 05:09:36;;;;;;;19.32;4.47;;;;;;;;;;1701194;83;20900;-89
2022/11/01 05:12:01;;;;;;;15.05;4.35;;;;;;;;;;1700875;83;21781;-90
2022/11/01 05:14:27;;;;;;;15.48;4.55;;;;;;;;;;1700825;83;20837;-89
2022/11/01 05:16:56;;;;;;;15.40;5.08;;;;;;;;;;1701036;84;20959;-90
2022/11/01 05:19:22;;;;;;;11.15;4.37;;;;;;;;;;1701108;83;21039;-94
2022/11/01 05:21:48;;;;;;;14.75;4.80;;;;;;;;;;1700960;83;21658;-90
2022/11/01 05:24:14;;;;;;;14.83;4.90;;;;;;;;;;1700856;83;21270;-89
2022/11/01 05:26:40;;;;;;;16.00;5.47;;;;;;;;;;1701047;84;21037;-91
2022/11/01 05:29:06;;;;;;;15.60;5.05;;;;;;;;;;1700841;84;20939;-90
2022/11/01 05:31:32;;;;;;;18.90;5.22;;;;;;;;;;1701315;84;20888;-91
2022/11/01 05:33:57;;;;;;;17.32;5.20;;;;;;;;;;1701076;83;21692;-90
2022/11/01 05:36:23;;;;;;;14.93;5.58;;;;;;;;;;1719831;81;21074;-89
2022/11/01 05:38:49;;;;;;;16.05;4.78;;;;;;;;;;1714921;83;20986;-90
2022/11/01 05:41:40;;;;;;;;;;;;;;;;;;;;;
2022/11/01 05:43:58;;;;;;;14.25;4.12;;;;;;;;;;1697264;82;21581;-91
2022/11/01 05:46:23;;;;;;;16.82;5.10;;;;;;;;;;1707160;84;21042;-91
2022/11/01 05:48:49;;;;;;;15.40;4.78;;;;;;;;;;1707090;83;21071;-91
2022/11/01 05:51:15;;;;;;;13.05;4.62;;;;;;;;;;1706740;83;20982;-90
2022/11/01 05:53:40;;;;;;;12.85;4.85;;;;;;;;;;1707010;84;20896;-92
2022/11/01 05:56:06;;;;;;;10.85;4.75;;;;;;;;;;1707225;82;21018;-91
2022/11/01 05:58:32;;;;;;;10.65;4.50;;;;;;;;;;1706758;83;20849;-91
2022/11/01 06:01:00;;;;;;;12.82;5.15;;;;;;;;;;1706732;83;21036;-90
2022/11/01 06:03:26;;;;;;;11.55;4.75;;;;;;;;;;1704344;84;21070;-89
2022/11/01 06:05:52;;;;;;;10.25;4.58;;;;;;;;;;1707140;84;21233;-90
2022/11/01 06:08:18;;;;;;;12.68;5.08;;;;;;;;;;1707258;82;20860;-93
2022/11/01 06:10:44;;;;;;;11.60;5.10;;;;;;;;;;1707001;84;21547;-90
2022/11/01 06:13:09;;;;;;;12.98;4.87;;;;;;;;;;1706899;84;21008;-89
2022/11/01 06:15:36;;;;;;;8.83;4.80;;;;;;;;;;1706856;83;21573;-89
2022/11/01 06:18:02;;;;;;;10.65;4.80;;;;;;;;;;1706590;84;21132;-90
2022/11/01 06:20:29;;;;;;;14.25;4.90;;;;;;;;;;1706316;84;21011;-90
2022/11/01 06:22:56;;;;;;;7.55;4.60;;;;;;;;;;1706441;84;21035;-87
2022/11/01 06:25:21;;;;;;;10.00;4.58;;;;;;;;;;1706225;84;21045;-89
2022/11/01 06:27:47;;;;;;;10.45;4.78;;;;;;;;;;1706648;84;20887;-88
2022/11/01 06:30:13;;;;;;;11.45;5.15;;;;;;;;;;1706678;82;20974;-90
2022/11/01 06:35:07;;;;;;;8.70;4.75;;;;;;;;;;1644344;86;21263;-88
2022/11/01 06:37:32;;;;;;;9.00;5.03;;;;;;;;;;1644174;86;21718;-88
2022/11/01 06:39:58;;;;;;;9.25;4.42;;;;;;;;;;1644515;86;20817;-87
2022/11/01 06:42:24;;;;;;;8.93;4.35;;;;;;;;;;1644603;87;20920;-88
2022/11/01 06:44:49;;;;;;;6.92;4.08;;;;;;;;;;1644602;85;20881;-88
2022/11/01 06:47:15;;;;;;;9.03;4.87;;;;;;;;;;1644769;87;20983;-87
2022/11/01 06:49:41;;;;;;;11.88;4.72;;;;;;;;;;1645132;85;21144;-87
2022/11/01 06:52:07;;;;;;;7.97;4.28;;;;;;;;;;1644614;87;20996;-87
2022/11/01 06:54:33;;;;;;;8.23;4.45;;;;;;;;;;1644796;87;20979;-85
2022/11/01 06:56:59;;;;;;;7.67;3.75;;;;;;;;;;1622612;87;21023;-87
2022/11/01 06:59:25;;;;;;;7.72;4.28;;;;;;;;;;1644609;86;20853;-87
2022/11/01 07:01:53;;;;;;;8.65;4.50;;;;;;;;;;1644580;87;21568;-87
2022/11/01 07:04:20;;;;;;;7.37;4.08;;;;;;;;;;1644539;86;21063;-86
2022/11/01 07:06:46;;;;;;;6.80;4.83;;;;;;;;;;1644472;86;21585;-88
2022/11/01 07:09:12;;;;;;;7.65;4.47;;;;;;;;;;1645049;86;20936;-84
2022/11/01 07:11:38;;;;;;;8.83;4.47;;;;;;;;;;1635774;85;20989;-84
2022/11/01 07:14:04;;;;;;;8.45;4.37;;;;;;;;;;1634309;85;21149;-87
2022/11/01 07:16:30;;;;;;;10.43;4.70;;;;;;;;;;1631268;87;20967;-87
2022/11/01 07:18:56;;;;;;;7.72;4.62;;;;;;;;;;1629813;86;21121;-87
2022/11/01 07:21:22;;;;;;;11.03;4.20;;;;;;;;;;1631370;86;21051;-87
2022/11/01 07:23:48;;;;;;;9.38;4.95;;;;;;;;;;1629503;86;21058;-89
2022/11/01 07:26:14;;;;;;;8.05;4.40;;;;;;;;;;1628721;87;21200;-90
2022/11/01 07:28:40;;;;;;;10.00;4.60;;;;;;;;;;1630483;86;21002;-89
2022/11/01 07:31:05;;;;;;;10.63;4.40;;;;;;;;;;1639305;84;20900;-86
2022/11/01 07:33:31;;;;;;;7.25;4.15;;;;;;;;;;1700792;84;20899;-84
2022/11/01 07:35:57;;;;;;;7.17;4.20;;;;;;;;;;1722921;82;21635;-89
2022/11/01 07:38:23;;;;;;;8.68;4.30;;;;;;;;;;1725314;81;21059;-89
2022/11/01 07:40:51;;;;;;;6.67;4.00;;;;;;;;;;1726282;82;20866;-89
2022/11/01 07:43:18;;;;;;;7.35;4.03;;;;;;;;;;1728088;82;21061;-89
2022/11/01 07:45:44;;;;;;;7.67;4.17;;;;;;;;;;1728438;82;20961;-88
2022/11/01 07:48:12;;;;;;;6.33;3.77;;;;;;;;;;1705044;82;20904;-87
2022/11/01 07:50:38;;;;;;;7.53;3.90;;;;;;;;;;1730191;82;21112;-88
2022/11/01 07:53:07;;;;;;;7.20;4.10;;;;;;;;;;1729780;82;21003;-86
2022/11/01 07:55:34;;;;;;;5.95;3.60;;;;;;;;;;1730179;82;21669;-88
2022/11/01 07:58:00;;;;;;;4.72;3.40;;;;;;;;;;1730134;82;21043;-86
2022/11/01 08:00:26;;;;;;;7.75;3.80;;;;;;;;;;1726563;82;21666;-87
2022/11/01 08:02:51;;;;;;;9.90;3.20;;;;;;;;;;1701235;83;21072;-89
2022/11/01 08:05:17;;;;;;;7.92;3.10;;;;;;;;;;1706724;82;21970;-87
2022/11/01 08:07:43;;;;;;;4.60;2.90;;;;;;;;;;1730000;82;20995;-86
2022/11/01 08:10:13;;;;;;;5.15;2.77;;;;;;;;;;1729973;82;20944;-87
2022/11/01 08:12:39;;;;;;;7.45;3.05;;;;;;;;;;1700652;84;20995;-88
2022/11/01 08:15:06;;;;;;;3.85;2.80;;;;;;;;;;1708310;81;21815;-89
2022/11/01 08:17:34;;;;;;;3.45;2.55;;;;;;;;;;1722735;82;21484;-90
2022/11/01 08:20:01;;;;;;;4.33;2.33;;;;;;;;;;1706260;82;21016;-87
2022/11/01 08:22:26;;;;;;;5.22;2.05;;;;;;;;;;1712943;82;21023;-85
2022/11/01 08:24:52;;;;;;;6.78;2.62;;;;;;;;;;1728141;82;20876;-89
2022/11/01 08:27:18;;;;;;;7.42;2.80;;;;;;;;;;1729227;82;21993;-91
2022/11/01 08:29:44;;;;;;;9.38;2.40;;;;;;;;;;1725616;82;21548;-91
2022/11/01 08:32:10;;;;;;;5.62;2.35;;;;;;;;;;1727894;81;20806;-88
2022/11/01 08:34:35;;;;;;;5.20;2.08;;;;;;;;;;1702813;82;21039;-89
2022/11/01 08:37:01;;;;;;;6.08;2.35;;;;;;;;;;1729563;82;21054;-89
2022/11/01 08:39:27;;;;;;;6.42;2.00;;;;;;;;;;1726491;82;20939;-91
2022/11/01 08:41:52;;;;;;;6.55;2.20;;;;;;;;;;1725954;82;20896;-92
2022/11/01 08:44:19;;;;;;;9.00;2.37;;;;;;;;;;1728548;82;20860;-91
2022/11/01 08:46:45;;;;;;;3.85;1.77;;;;;;;;;;1737465;82;21547;-91
2022/11/01 08:49:14;;;;;;;7.37;2.62;;;;;;;;;;1730868;82;21043;-89
2022/11/01 08:51:40;;;;;;;8.30;2.33;;;;;;;;;;1722766;81;21190;-88
2022/11/01 08:54:07;;;;;;;6.78;2.52;;;;;;;;;;1735720;82;20845;-90
2022/11/01 08:56:33;;;;;;;7.87;2.45;;;;;;;;;;1734527;82;21001;-90
2022/11/01 08:58:59;;;;;;;6.28;2.22;;;;;;;;;;1717244;81;21422;-89
2022/11/01 09:01:25;;;;;;;8.40;2.37;;;;;;;;;;1724668;81;21047;-87
2022/11/01 09:03:56;;;;;;;4.42;1.85;;;;;;;;;;1767997;81;21234;-88
2022/11/01 09:06:22;;;;;;;8.60;1.87;;;;;;;;;;1767691;81;21023;-92
2022/11/01 09:08:49;;;;;;;3.42;1.47;;;;;;;;;;1768188;81;21621;-93
2022/11/01 09:11:15;;;;;;;5.70;1.85;;;;;;;;;;1767738;81;21574;-91
2022/11/01 09:13:41;;;;;;;6.05;1.52;;;;;;;;;;1768064;81;21007;-91
2022/11/01 09:16:07;;;;;;;9.20;2.15;;;;;;;;;;1737768;81;22115;-91
2022/11/01 09:18:33;;;;;;;7.25;1.77;;;;;;;;;;1757715;80;20936;-92
2022/11/01 09:20:59;;;;;;;7.83;1.82;;;;;;;;;;1734803;82;20981;-91
2022/11/01 09:23:24;;;;;;;4.15;1.55;;;;;;;;;;1734932;82;20817;-93
2022/11/01 09:25:50;;;;;;;6.87;1.82;;;;;;;;;;1735039;82;20825;-89
2022/11/01 09:28:16;;;;;;;7.55;1.70;;;;;;;;;;1734232;82;21051;-86
2022/11/01 09:30:42;;;;;;;3.35;1.82;;;;;;;;;;1731963;81;20927;-88
2022/11/01 09:33:08;;;;;;;4.55;1.65;;;;;;;;;;1732554;81;20896;-88
2022/11/01 09:35:34;;;;;;;3.62;1.60;;;;;;;;;;1730026;82;20841;-92
2022/11/01 09:38:01;;;;;;;4.62;1.70;;;;;;;;;;1740505;80;21474;-86
2022/11/01 09:40:34;;;;;;;4.45;1.67;;;;;;;;;;1733665;81;21567;-90
2022/11/01 09:43:01;;;;;;;5.12;1.55;;;;;;;;;;1722612;81;21102;-93
2022/11/01 09:45:29;;;;;;;5.40;1.95;;;;;;;;;;1726585;81;21532;-89
2022/11/01 09:47:56;;;;;;;5.50;1.70;;;;;;;;;;1720701;81;21612;-91
2022/11/01 09:50:28;;;;;;;7.92;1.72;;;;;;;;;;1727829;81;21031;-90
2022/11/01 09:52:55;;;;;;;5.33;1.87;;;;;;;;;;1728269;81;21956;-88
2022/11/01 09:55:27;;;;;;;4.87;1.90;;;;;;;;;;1706001;81;21019;-95
2022/11/01 09:57:57;;;;;;;8.80;1.72;;;;;;;;;;1641500;87;21035;-89
2022/11/01 10:00:23;;;;;;;6.60;1.70;;;;;;;;;;1584482;88;21481;-89
2022/11/01 10:03:14;;;;;;;5.00;1.90;;;;;;;;;;1603059;89;21480;-87
2022/11/01 10:05:53;;;;;;;5.92;2.27;;;;;;;;;;1571829;91;22648;-91
2022/11/01 10:08:42;;;;;;;4.15;1.55;;;;;;;;;;1572110;91;21490;-92
2022/11/01 10:11:12;;;;;;;6.08;1.65;;;;;;;;;;1573796;89;21727;-89
2022/11/01 10:13:47;;;;;;;3.52;1.42;;;;;;;;;;1570868;91;21147;-87
2022/11/01 10:16:28;;;;;;;4.40;1.72;;;;;;;;;;1571092;89;21104;-86
2022/11/01 10:19:03;;;;;;;5.65;1.70;;;;;;;;;;1571003;91;21350;-89
2022/11/01 10:21:41;;;;;;;4.37;1.40;;;;;;;;;;1573850;89;21088;-90
2022/11/01 10:24:06;;;;;;;3.95;1.45;;;;;;;;;;1570210;89;21091;-92
2022/11/01 10:26:32;;;;;;;3.35;1.15;;;;;;;;;;1572875;91;21093;-90
2022/11/01 10:29:08;;;;;;;6.87;1.37;;;;;;;;;;1586956;89;20903;-92
2022/11/01 10:31:36;;;;;;;2.87;1.25;;;;;;;;;;1601820;87;21388;-88
2022/11/01 10:34:06;;;;;;;4.00;1.40;;;;;;;;;;1600544;87;21622;-93
2022/11/01 10:36:33;;;;;;;5.83;1.40;;;;;;;;;;1633398;86;21636;-92
2022/11/01 10:39:10;;;;;;;2.87;1.20;;;;;;;;;;1638974;87;21023;-93
2022/11/01 10:41:42;;;;;;;3.95;1.15;;;;;;;;;;1635883;87;21045;-91
2022/11/01 10:44:17;;;;;;;5.65;1.30;;;;;;;;;;1559091;91;22396;-91
2022/11/01 10:46:44;;;;;;;3.45;1.42;;;;;;;;;;1555463;91;21630;-92
2022/11/01 10:49:22;;;;;;;6.50;1.57;;;;;;;;;;1555612;91;21654;-89
2022/11/01 10:51:50;;;;;;;4.85;1.30;;;;;;;;;;1502279;94;21066;-89
2022/11/01 10:54:22;;;;;;;2.87;1.20;;;;;;;;;;1501416;94;21187;-91
2022/11/01 10:56:49;;;;;;;1.65;1.10;;;;;;;;;;1510718;91;21080;-93
2022/11/01 10:59:33;;;;;;;3.87;1.05;;;;;;;;;;1530478;91;21044;-90
2022/11/01 11:02:01;;;;;;;4.28;1.30;;;;;;;;;;1530769;92;21133;-88
2022/11/01 11:04:27;;;;;;;7.15;1.62;;;;;;;;;;1521542;92;21124;-92
2022/11/01 11:06:56;;;;;;;3.83;1.20;;;;;;;;;;1511716;92;21127;-93
2022/11/01 11:09:25;;;;;;;5.53;1.40;;;;;;;;;;1530968;92;21744;-89
2022/11/01 11:11:54;;;;;;;6.08;1.55;;;;;;;;;;1527602;92;21218;-91
2022/11/01 11:14:20;;;;;;;3.00;1.55;;;;;;;;;;1530199;92;21079;-90
2022/11/01 11:16:49;;;;;;;2.60;1.17;;;;;;;;;;1528918;91;20953;-87
2022/11/01 11:19:30;;;;;;;4.03;1.30;;;;;;;;;;1530262;92;21200;-89
2022/11/01 11:21:57;;;;;;;4.37;1.37;;;;;;;;;;1530291;92;21067;-90
2022/11/01 11:24:24;;;;;;;4.58;1.40;;;;;;;;;;1530858;91;21155;-91
2022/11/01 11:26:52;;;;;;;5.95;1.40;;;;;;;;;;1530647;92;21107;-91
2022/11/01 11:29:36;;;;;;;5.35;1.80;;;;;;;;;;1584367;87;21141;-92
2022/11/01 11:32:03;;;;;;;5.22;1.32;;;;;;;;;;1619617;88;21082;-88
2022/11/01 11:34:34;;;;;;;4.28;1.30;;;;;;;;;;1620035;88;21509;-92
2022/11/01 11:37:02;;;;;;;3.55;1.47;;;;;;;;;;1635449;85;21050;-91
2022/11/01 11:39:36;;;;;;;2.92;1.40;;;;;;;;;;1608681;88;21535;-90
2022/11/01 11:42:17;;;;;;;3.52;1.32;;;;;;;;;;1675968;85;21043;-91
2022/11/01 11:44:48;;;;;;;5.45;1.00;;;;;;;;;;1673582;84;20996;-92
2022/11/01 11:47:25;;;;;;;3.72;1.00;;;;;;;;;;1680866;83;21563;-93
2022/11/01 11:49:52;;;;;;;3.22;0.98;;;;;;;;;;1608707;87;21074;-88
2022/11/01 11:52:25;;;;;;;7.35;1.50;;;;;;;;;;1610479;87;22005;-88
2022/11/01 11:54:50;;;;;;;3.72;1.15;;;;;;;;;;1603895;87;21098;-92
2022/11/01 11:57:23;;;;;;;2.60;1.10;;;;;;;;;;1611375;87;21033;-90
2022/11/01 11:59:54;;;;;;;3.90;1.37;;;;;;;;;;1611042;88;21160;-90
2022/11/01 12:02:24;;;;;;;3.60;1.27;;;;;;;;;;1609115;87;21065;-93
2022/11/01 12:04:56;;;;;;;6.53;1.50;;;;;;;;;;1622285;87;21092;-90
2022/11/01 12:07:29;;;;;;;4.27;1.40;;;;;;;;;;1610471;88;21092;-89
2022/11/01 12:09:57;;;;;;;5.87;1.37;;;;;;;;;;1545514;92;21152;-88
2022/11/01 12:12:25;;;;;;;3.83;1.40;;;;;;;;;;1541153;92;21096;-92
2022/11/01 12:14:51;;;;;;;4.33;1.65;;;;;;;;;;1539582;92;21251;-89
2022/11/01 12:17:32;;;;;;;2.85;1.50;;;;;;;;;;1538341;92;21140;-90
2022/11/01 12:20:15;;;;;;;3.20;1.27;;;;;;;;;;1543009;92;21072;-92
2022/11/01 12:22:51;;;;;;;3.52;1.42;;;;;;;;;;1542842;91;21474;-89
2022/11/01 12:25:20;;;;;;;3.42;1.30;;;;;;;;;;1523328;92;21398;-90
2022/11/01 12:27:55;;;;;;;7.45;1.60;;;;;;;;;;1527547;92;21175;-93
2022/11/01 12:30:23;;;;;;;3.52;1.37;;;;;;;;;;1507861;94;21568;-85
2022/11/01 12:32:53;;;;;;;8.58;1.70;;;;;;;;;;1490762;96;21660;-86
2022/11/01 12:35:30;;;;;;;4.60;1.50;;;;;;;;;;1490569;96;21095;-91
2022/11/01 12:38:19;;;;;;;7.25;2.02;;;;;;;;;;1494747;96;21407;-89
2022/11/01 12:40:48;;;;;;;7.00;1.70;;;;;;;;;;1556661;92;21099;-91
2022/11/01 12:43:20;;;;;;;3.12;1.40;;;;;;;;;;1556947;92;21127;-92
2022/11/01 12:45:50;;;;;;;6.53;1.98;;;;;;;;;;1588947;88;21133;-91
2022/11/01 12:48:19;;;;;;;11.48;2.25;;;;;;;;;;1610594;88;21567;-91
2022/11/01 12:50:48;;;;;;;3.05;1.42;;;;;;;;;;1618357;88;21104;-91
2022/11/01 12:53:17;;;;;;;7.12;1.65;;;;;;;;;;1621057;88;21087;-89
2022/11/01 12:55:43;;;;;;;5.03;1.57;;;;;;;;;;1559180;91;21069;-86
2022/11/01 12:58:12;;;;;;;7.70;1.55;;;;;;;;;;1554583;91;20932;-91
2022/11/01 13:00:42;;;;;;;5.95;2.25;;;;;;;;;;1551329;89;21071;-87
2022/11/01 13:03:23;;;;;;;4.83;1.50;;;;;;;;;;1572437;88;21968;-85
2022/11/01 13:05:52;;;;;;;6.37;1.77;;;;;;;;;;1588074;89;21108;-89
2022/11/01 13:08:30;;;;;;;9.20;1.98;;;;;;;;;;1594102;89;21187;-91
2022/11/01 13:11:00;;;;;;;7.58;2.10;;;;;;;;;;1589152;88;21064;-86
2022/11/01 13:13:44;;;;;;;3.33;1.37;;;;;;;;;;1588698;89;21583;-87
2022/11/01 13:16:29;;;;;;;5.30;1.30;;;;;;;;;;1495046;93;21259;-90
2022/11/01 13:19:13;;;;;;;4.28;1.70;;;;;;;;;;1513176;93;21088;-89
2022/11/01 13:21:48;;;;;;;5.08;1.80;;;;;;;;;;1534005;90;21003;-88
2022/11/01 13:24:30;;;;;;;4.35;1.35;;;;;;;;;;1493912;94;21500;-88
2022/11/01 13:27:02;;;;;;;5.08;1.60;;;;;;;;;;1489971;94;21807;-87
2022/11/01 13:29:42;;;;;;;7.97;1.70;;;;;;;;;;1483458;95;21610;-87
2022/11/01 13:32:20;;;;;;;5.20;1.92;;;;;;;;;;1491625;95;21163;-88
2022/11/01 13:34:52;;;;;;;7.10;2.02;;;;;;;;;;1499101;94;21109;-89
2022/11/01 13:37:21;;;;;;;4.75;1.82;;;;;;;;;;1490948;94;21618;-87
2022/11/01 13:39:53;;;;;;;5.15;1.80;;;;;;;;;;1481037;94;21122;-89
2022/11/01 13:42:22;;;;;;;5.00;1.57;;;;;;;;;;1502738;94;21189;-87
2022/11/01 13:44:52;;;;;;;7.03;2.02;;;;;;;;;;1526886;93;21180;-87
2022/11/01 13:47:36;;;;;;;5.97;1.90;;;;;;;;;;1516117;93;21114;-88
2022/11/01 13:50:25;;;;;;;6.08;1.62;;;;;;;;;;1501903;94;21187;-88
2022/11/01 13:52:54;;;;;;;6.35;1.92;;;;;;;;;;1526897;92;21140;-88
2022/11/01 13:55:35;;;;;;;6.58;2.10;;;;;;;;;;1554992;90;22010;-88
2022/11/01 13:58:00;;;;;;;11.75;2.22;;;;;;;;;;1564133;90;21540;-88
2022/11/01 14:00:43;;;;;;;8.60;1.90;;;;;;;;;;1565243;91;21053;-87
2022/11/01 14:03:29;;;;;;;9.43;2.35;;;;;;;;;;1560433;90;21107;-90
2022/11/01 14:06:23;;;;;;;10.05;2.60;;;;;;;;;;1564538;90;21125;-89
2022/11/01 14:11:43;;;;;;;11.40;3.27;;;;;;;;;;1484654;96;21142;-89
2022/11/01 14:14:34;;;;;;;8.63;2.70;;;;;;;;;;1527026;93;21162;-89
2022/11/01 14:17:22;;;;;;;9.60;3.30;;;;;;;;;;1530888;92;21154;-88
2022/11/01 14:19:49;;;;;;;9.93;3.08;;;;;;;;;;1507979;95;21248;-90
2022/11/01 14:22:31;;;;;;;12.85;3.05;;;;;;;;;;1498237;93;21126;-89
2022/11/01 14:24:59;;;;;;;15.58;3.62;;;;;;;;;;1519906;93;21322;-89
2022/11/01 14:27:34;;;;;;;11.05;3.22;;;;;;;;;;1531514;93;22382;-90
2022/11/01 14:30:01;;;;;;;12.47;3.10;;;;;;;;;;1527394;92;20986;-85
2022/11/01 14:32:29;;;;;;;8.75;3.00;;;;;;;;;;1529919;92;21087;-86
2022/11/01 14:34:58;;;;;;;12.28;3.47;;;;;;;;;;1483909;95;21111;-83
2022/11/01 14:37:26;;;;;;;10.90;3.40;;;;;;;;;;1481022;96;21042;-85
2022/11/01 14:39:56;;;;;;;10.50;2.87;;;;;;;;;;1493676;95;21081;-86
2022/11/01 14:42:26;;;;;;;8.80;3.20;;;;;;;;;;1514282;93;21630;-88
2022/11/01 14:44:53;;;;;;;9.25;2.60;;;;;;;;;;1514616;94;21155;-89
2022/11/01 14:47:23;;;;;;;10.82;2.95;;;;;;;;;;1518401;93;21156;-88
2022/11/01 14:49:51;;;;;;;10.50;3.10;;;;;;;;;;1518872;93;21111;-90
2022/11/01 14:52:30;;;;;;;10.40;3.50;;;;;;;;;;1521018;92;21118;-87
2022/11/01 14:55:03;;;;;;;9.53;3.50;;;;;;;;;;1457863;96;21112;-87
2022/11/01 14:57:31;;;;;;;20.85;5.80;;;;;;;;;;1455607;96;21581;-89
2022/11/01 14:59:58;;;;;;;18.48;4.42;;;;;;;;;;1455056;96;21803;-89
2022/11/01 15:02:26;;;;;;;13.08;4.08;;;;;;;;;;1455760;96;21117;-86
2022/11/01 15:04:59;;;;;;;19.15;6.25;;;;;;;;;;1456102;98;21176;-92
2022/11/01 15:07:30;;;;;;;15.90;5.28;;;;;;;;;;1466599;94;21172;-85
2022/11/01 15:10:08;;;;;;;18.17;5.97;;;;;;;;;;1515705;93;21629;-88